Time,TemperatureF,DewpointF,PressureIn,WindDirection,WindDirectionDegrees,WindSpeedMPH,WindSpeedGustMPH,Humidity,HourlyPrecipIn,Conditions,Clouds,dailyrainin,SoftwareType,DateUTC
2013-03-16 00:00:00,58.0,45.9,29.89,WNW,292,0.0,5.0,64,0.00,,,0.00,Weather View 32 v70,2013-03-16 07:00:00,
2013-03-16 00:30:00,56.0,33.8,29.87,NNW,337,0.0,5.0,43,0.00,,,0.00,Weather View 32 v70,2013-03-16 07:30:00,
2013-03-16 00:35:00,56.0,33.8,29.87,NNW,337,0.0,5.0,43,0.00,,,0.00,Weather View 32 v70,2013-03-16 07:35:00,
2013-03-16 01:00:00,54.0,-44.7,29.87,ENE,67,0.0,2.0,1,0.00,,,0.00,Weather View 32 v70,2013-03-16 08:00:00,
2013-03-16 01:30:00,53.0,-45.3,29.87,ENE,67,0.0,2.0,1,0.00,,,0.00,Weather View 32 v70,2013-03-16 08:30:00,
2013-03-16 02:00:00,52.0,-46.0,29.86,ENE,67,0.0,0.0,1,0.00,,,0.00,Weather View 32 v70,2013-03-16 09:00:00,
2013-03-16 02:30:00,52.0,-46.0,29.85,SW,225,0.0,2.0,1,0.00,,,0.00,Weather View 32 v70,2013-03-16 09:30:00,
2013-03-16 02:36:00,52.0,-46.0,29.85,SW,225,0.0,2.0,1,0.00,,,0.00,Weather View 32 v70,2013-03-16 09:36:00,
2013-03-16 03:00:00,51.0,-46.6,29.85,SSW,202,0.0,4.0,1,0.00,,,0.00,Weather View 32 v70,2013-03-16 10:00:00,
2013-03-16 03:30:00,51.0,-46.6,29.85,SSW,202,0.0,4.0,1,0.00,,,0.00,Weather View 32 v70,2013-03-16 10:30:00,
2013-03-16 03:37:00,51.0,-46.6,29.85,SSW,202,0.0,4.0,1,0.00,,,0.00,Weather View 32 v70,2013-03-16 10:37:00,
2013-03-16 04:00:00,50.0,-47.2,29.84,SSW,202,0.0,0.0,1,0.00,,,0.00,Weather View 32 v70,2013-03-16 11:00:00,
2013-03-16 04:30:00,50.0,-47.2,29.83,ESE,112,0.0,3.0,1,0.00,,,0.00,Weather View 32 v70,2013-03-16 11:30:00,
2013-03-16 04:37:00,50.0,-47.2,29.83,ESE,112,0.0,3.0,1,0.00,,,0.00,Weather View 32 v70,2013-03-16 11:37:00,
2013-03-16 05:00:00,49.0,-47.8,29.83,SSW,202,0.0,3.0,1,0.00,,,0.00,Weather View 32 v70,2013-03-16 12:00:00,
2013-03-16 05:30:00,49.0,-47.8,29.84,SSE,157,0.0,2.0,1,0.00,,,0.00,Weather View 32 v70,2013-03-16 12:30:00,
2013-03-16 05:38:00,49.0,-47.8,29.84,SSE,157,0.0,2.0,1,0.00,,,0.00,Weather View 32 v70,2013-03-16 12:38:00,
2013-03-16 06:00:00,50.0,-47.2,29.84,SSE,157,0.0,2.0,1,0.00,,,0.00,Weather View 32 v70,2013-03-16 13:00:00,
2013-03-16 06:30:00,49.0,-47.8,29.85,East,90,0.0,3.0,1,0.00,,,0.00,Weather View 32 v70,2013-03-16 13:30:00,
2013-03-16 06:39:00,49.0,-47.8,29.85,East,90,0.0,3.0,1,0.00,,,0.00,Weather View 32 v70,2013-03-16 13:39:00,
2013-03-16 07:00:00,49.0,-47.8,29.85,ESE,112,2.0,3.0,1,0.00,,,0.00,Weather View 32 v70,2013-03-16 14:00:00,
2013-03-16 07:30:00,49.0,-47.8,29.85,SE,135,0.0,3.0,1,0.00,,,0.00,Weather View 32 v70,2013-03-16 14:30:00,
2013-03-16 07:39:00,49.0,-47.8,29.85,SE,135,0.0,3.0,1,0.00,,,0.00,Weather View 32 v70,2013-03-16 14:39:00,
2013-03-16 08:00:00,51.0,-46.6,29.87,South,180,0.0,3.0,1,0.00,,,0.00,Weather View 32 v70,2013-03-16 15:00:00,
2013-03-16 08:30:00,54.0,-44.7,29.89,SSW,202,1.0,7.0,1,0.00,,,0.00,Weather View 32 v70,2013-03-16 15:30:00,
2013-03-16 09:00:00,57.0,-42.9,29.93,South,180,0.0,7.0,1,0.00,,,0.00,Weather View 32 v70,2013-03-16 16:00:00,
2013-03-16 09:30:00,60.0,30.0,29.95,SSW,202,2.0,7.0,32,0.00,,,0.00,Weather View 32 v70,2013-03-16 16:30:00,
2013-03-16 10:00:00,64.0,55.5,29.98,SSE,157,5.0,7.0,74,0.00,,,0.00,Weather View 32 v70,2013-03-16 17:00:00,
2013-03-16 10:30:00,64.0,58.7,29.97,SSE,157,6.0,10.0,83,0.00,,,0.00,Weather View 32 v70,2013-03-16 17:30:00,
2013-03-16 11:00:00,66.0,59.3,29.99,SSE,157,4.0,10.0,79,0.00,,,0.00,Weather View 32 v70,2013-03-16 18:00:00,
2013-03-16 11:30:00,69.0,61.5,30.01,SSW,202,3.0,10.0,77,0.00,,,0.00,Weather View 32 v70,2013-03-16 18:30:00,
2013-03-16 12:00:00,69.0,60.0,30.00,South,180,2.0,8.0,73,0.00,,,0.00,Weather View 32 v70,2013-03-16 19:00:00,
2013-03-16 12:30:00,72.0,60.8,29.99,WSW,247,6.0,10.0,68,0.00,,,0.00,Weather View 32 v70,2013-03-16 19:30:00,
2013-03-16 13:00:00,73.0,60.9,29.97,ENE,67,6.0,10.0,66,0.00,,,0.00,Weather View 32 v70,2013-03-16 20:00:00,
2013-03-16 13:30:00,73.0,60.1,29.96,South,180,6.0,9.0,64,0.00,,,0.00,Weather View 32 v70,2013-03-16 20:30:00,
2013-03-16 14:00:00,75.0,59.7,29.96,SW,225,0.0,9.0,59,0.00,,,0.00,Weather View 32 v70,2013-03-16 21:00:00,
2013-03-16 14:30:00,76.0,58.6,29.95,South,180,3.0,7.0,55,0.00,,,0.00,Weather View 32 v70,2013-03-16 21:30:00,
2013-03-16 15:00:00,77.0,58.5,29.95,SW,225,0.0,7.0,53,0.00,,,0.00,Weather View 32 v70,2013-03-16 22:00:00,
2013-03-16 15:30:00,78.0,60.0,29.95,NW,315,0.0,9.0,54,0.00,,,0.00,Weather View 32 v70,2013-03-16 22:30:00,
2013-03-16 16:00:00,78.0,59.4,29.95,WNW,292,0.0,12.0,53,0.00,,,0.00,Weather View 32 v70,2013-03-16 23:00:00,
2013-03-16 16:30:00,77.0,56.9,29.94,WNW,292,0.0,12.0,50,0.00,,,0.00,Weather View 32 v70,2013-03-16 23:30:00,
2013-03-16 17:00:00,77.0,56.9,29.94,WSW,247,2.0,12.0,50,0.00,,,0.00,Weather View 32 v70,2013-03-17 00:00:00,
2013-03-16 17:30:00,77.0,56.3,29.94,WNW,292,0.0,12.0,49,0.00,,,0.00,Weather View 32 v70,2013-03-17 00:30:00,
2013-03-16 18:00:00,77.0,57.4,29.95,NNW,337,2.0,8.0,51,0.00,,,0.00,Weather View 32 v70,2013-03-17 01:00:00,
2013-03-16 18:30:00,74.0,53.0,29.93,NNW,337,5.0,13.0,48,0.00,,,0.00,Weather View 32 v70,2013-03-17 01:30:00,
2013-03-16 19:00:00,71.0,53.0,29.92,NNW,337,3.0,13.0,53,0.00,,,0.00,Weather View 32 v70,2013-03-17 02:00:00,
2013-03-16 19:30:00,68.0,50.2,29.90,NW,315,6.0,9.0,53,0.00,,,0.00,Weather View 32 v70,2013-03-17 02:30:00,
2013-03-16 20:00:00,66.0,42.8,29.89,NNW,337,5.0,9.0,43,0.00,,,0.00,Weather View 32 v70,2013-03-17 03:00:00,
2013-03-16 20:30:00,65.0,45.9,29.88,NNW,337,5.0,9.0,50,0.00,,,0.00,Weather View 32 v70,2013-03-17 03:30:00,
2013-03-16 21:00:00,65.0,47.4,29.89,WNW,292,7.0,9.0,53,0.00,,,0.00,Weather View 32 v70,2013-03-17 04:00:00,
2013-03-16 21:30:00,65.0,47.9,29.88,NW,315,6.0,9.0,54,0.00,,,0.00,Weather View 32 v70,2013-03-17 04:30:00,
2013-03-16 22:00:00,65.0,47.9,29.89,NW,315,1.0,9.0,54,0.00,,,0.00,Weather View 32 v70,2013-03-17 05:00:00,
2013-03-16 22:30:00,64.0,47.0,29.89,NW,315,5.0,8.0,54,0.00,,,0.00,Weather View 32 v70,2013-03-17 05:30:00,
2013-03-16 23:00:00,63.0,46.5,29.89,WNW,292,2.0,8.0,55,0.00,,,0.00,Weather View 32 v70,2013-03-17 06:00:00,
2013-03-16 23:30:00,60.0,46.5,29.89,WNW,292,0.0,8.0,61,0.00,,,0.00,Weather View 32 v70,2013-03-17 06:30:00,